createdAt,value
2022-09-28T00:00:47.510Z,3.38
2022-09-28T00:03:14.599Z,2.97
2022-09-28T00:05:41.697Z,2.95
2022-09-28T00:08:08.998Z,2.78
2022-09-28T00:10:36.128Z,5.53
2022-09-28T00:13:03.310Z,4.57
2022-09-28T00:15:30.376Z,4.28
2022-09-28T00:17:57.461Z,4.40
2022-09-28T00:20:24.661Z,3.78
2022-09-28T00:22:51.724Z,1.23
2022-09-28T00:25:22.058Z,4.95
2022-09-28T00:27:52.323Z,5.45
2022-09-28T00:30:19.435Z,3.70
2022-09-28T00:32:46.617Z,2.92
2022-09-28T00:35:13.760Z,3.45
2022-09-28T00:37:41.151Z,5.93
2022-09-28T00:40:08.484Z,5.35
2022-09-28T00:42:35.613Z,2.90
2022-09-28T00:45:02.782Z,5.13
2022-09-28T00:47:31.194Z,4.68
2022-09-28T00:50:16.753Z,3.63
2022-09-28T00:52:47.683Z,5.78
2022-09-28T00:55:17.018Z,3.42
2022-09-28T00:57:47.264Z,2.38
2022-09-28T01:00:14.499Z,3.05
2022-09-28T01:02:41.660Z,1.83
2022-09-28T01:05:10.555Z,4.25
2022-09-28T01:07:38.189Z,4.80
2022-09-28T01:10:06.010Z,3.58
2022-09-28T01:12:33.096Z,6.25
2022-09-28T01:15:00.636Z,4.13
2022-09-28T01:17:43.052Z,4.28
2022-09-28T01:20:12.920Z,5.78
2022-09-28T01:22:51.780Z,3.42
2022-09-28T01:25:21.836Z,4.88
2022-09-28T01:27:52.423Z,3.97
2022-09-28T01:30:21.173Z,3.08
2022-09-28T01:35:19.036Z,2.38
2022-09-28T01:38:12.409Z,2.90
2022-09-28T01:43:08.930Z,3.97
2022-09-28T01:45:56.344Z,2.75
2022-09-28T01:48:27.189Z,4.80
2022-09-28T01:50:56.136Z,3.28
2022-09-28T01:53:26.690Z,2.78
2022-09-28T01:55:58.338Z,3.97
2022-09-28T01:58:29.617Z,4.13
2022-09-28T02:01:01.982Z,3.92
2022-09-28T02:03:42.337Z,3.20
2022-09-28T02:06:13.751Z,3.33
2022-09-28T02:08:44.070Z,5.25
2022-09-28T02:11:15.080Z,3.50
2022-09-28T02:14:01.616Z,9.30
2022-09-28T02:16:38.467Z,6.70
2022-09-28T02:19:06.242Z,6.55
2022-09-28T02:21:38.545Z,4.97
2022-09-28T02:24:11.500Z,6.55
2022-09-28T02:26:41.393Z,4.20
2022-09-28T02:29:08.578Z,8.70
2022-09-28T02:31:36.136Z,5.63
2022-09-28T02:34:03.336Z,6.95
2022-09-28T02:36:30.573Z,6.22
2022-09-28T02:38:58.609Z,6.22
2022-09-28T02:41:37.642Z,6.93
2022-09-28T02:44:13.842Z,8.32
2022-09-28T02:46:40.930Z,6.97
2022-09-28T02:49:26.153Z,6.90
2022-09-28T02:52:12.315Z,5.35
2022-09-28T02:54:42.400Z,6.10
2022-09-28T02:57:18.697Z,4.72
2022-09-28T03:00:00.775Z,4.47
2022-09-28T03:02:50.897Z,4.57
2022-09-28T03:05:44.300Z,2.33
2022-09-28T03:10:42.490Z,4.90
2022-09-28T03:13:09.869Z,4.40
2022-09-28T03:15:37.555Z,4.28
2022-09-28T03:18:04.931Z,3.45
2022-09-28T03:20:33.631Z,2.55
2022-09-28T03:23:23.174Z,3.85
2022-09-28T03:25:48.353Z,4.70
2022-09-28T03:28:15.532Z,3.30
2022-09-28T03:30:43.546Z,3.33
2022-09-28T03:33:10.592Z,3.58
2022-09-28T03:35:37.698Z,4.35
2022-09-28T03:38:04.828Z,3.47
2022-09-28T03:40:32.177Z,4.10
2022-09-28T03:43:00.783Z,4.97
2022-09-28T03:45:27.954Z,3.63
2022-09-28T03:47:55.078Z,5.88
2022-09-28T03:50:22.184Z,5.50
2022-09-28T03:52:49.279Z,5.72
2022-09-28T03:55:16.612Z,3.17
2022-09-28T03:57:43.796Z,4.13
2022-09-28T04:00:11.112Z,3.17
2022-09-28T04:02:38.275Z,3.38
2022-09-28T04:05:05.520Z,3.92
2022-09-28T04:07:32.619Z,3.72
2022-09-28T04:09:59.793Z,3.75
2022-09-28T04:12:27.120Z,4.88
2022-09-28T04:14:54.241Z,7.00
2022-09-28T04:17:21.349Z,3.95
2022-09-28T04:19:48.418Z,7.43
2022-09-28T04:22:15.559Z,5.15
2022-09-28T04:24:43.570Z,5.15
2022-09-28T04:27:29.377Z,8.32
2022-09-28T04:29:56.492Z,6.82
2022-09-28T04:32:23.637Z,7.63
2022-09-28T04:34:51.851Z,6.45
2022-09-28T04:37:19.014Z,6.57
2022-09-28T04:39:48.615Z,6.90
2022-09-28T04:42:15.985Z,6.70
2022-09-28T04:44:43.041Z,5.95
2022-09-28T04:47:10.524Z,6.03
2022-09-28T04:49:38.347Z,5.88
2022-09-28T04:52:06.321Z,6.10
2022-09-28T04:54:33.680Z,6.85
2022-09-28T04:57:01.716Z,5.38
2022-09-28T04:59:28.999Z,6.10
2022-09-28T05:01:56.143Z,7.15
2022-09-28T05:04:26.026Z,6.60
2022-09-28T05:06:53.412Z,6.35
2022-09-28T05:09:20.505Z,8.20
2022-09-28T05:11:49.708Z,7.88
2022-09-28T05:14:17.176Z,6.13
2022-09-28T05:16:45.183Z,10.25
2022-09-28T05:19:12.533Z,7.35
2022-09-28T05:21:39.748Z,7.18
2022-09-28T05:24:07.743Z,5.22
2022-09-28T05:26:35.381Z,4.78
2022-09-28T05:29:02.698Z,5.45
2022-09-28T05:31:30.169Z,5.03
2022-09-28T05:33:57.342Z,4.88
2022-09-28T05:36:27.361Z,7.53
2022-09-28T05:38:54.491Z,9.95
2022-09-28T05:41:21.792Z,6.28
2022-09-28T05:43:49.177Z,6.78
2022-09-28T05:46:16.320Z,7.28
2022-09-28T05:48:43.574Z,5.90
2022-09-28T05:51:10.830Z,8.30
2022-09-28T05:53:37.935Z,6.60
2022-09-28T05:56:05.041Z,7.63
2022-09-28T05:58:32.337Z,5.78
2022-09-28T06:00:59.575Z,4.20
2022-09-28T06:03:27.084Z,9.32
2022-09-28T06:05:54.235Z,6.70
2022-09-28T06:08:21.559Z,8.40
2022-09-28T06:10:48.778Z,5.13
2022-09-28T06:13:15.937Z,5.35
2022-09-28T06:15:46.243Z,4.25
2022-09-28T06:18:14.914Z,7.63
2022-09-28T06:20:42.548Z,6.90
2022-09-28T06:23:13.260Z,6.63
2022-09-28T06:25:40.819Z,7.25
2022-09-28T06:28:10.365Z,7.78
2022-09-28T06:30:38.631Z,6.88
2022-09-28T06:33:06.650Z,15.93
2022-09-28T06:35:33.791Z,7.22
2022-09-28T06:38:01.212Z,3.75
2022-09-28T06:40:28.797Z,5.55
2022-09-28T06:43:00.263Z,6.10
2022-09-28T06:45:28.333Z,5.00
2022-09-28T06:47:59.292Z,4.93
2022-09-28T06:50:37.353Z,6.57
2022-09-28T06:53:06.623Z,4.57
2022-09-28T06:55:34.125Z,9.13
2022-09-28T06:58:06.163Z,5.85
2022-09-28T07:00:34.464Z,4.78
2022-09-28T07:05:29.463Z,5.72
2022-09-28T07:07:57.206Z,7.43
2022-09-28T07:10:25.348Z,6.18
2022-09-28T07:12:52.794Z,5.88
2022-09-28T07:15:20.487Z,6.85
2022-09-28T07:17:59.937Z,6.05
2022-09-28T07:20:29.415Z,5.53
2022-09-28T07:22:59.806Z,8.23
2022-09-28T07:25:32.344Z,6.63
2022-09-28T07:28:00.361Z,4.15
2022-09-28T07:30:28.363Z,3.25
2022-09-28T07:32:55.772Z,3.47
2022-09-28T07:35:23.088Z,7.65
2022-09-28T07:37:50.296Z,5.63
2022-09-28T07:40:36.232Z,5.03
2022-09-28T07:43:07.104Z,4.13
2022-09-28T07:45:36.624Z,2.13
2022-09-28T07:48:03.971Z,6.75
2022-09-28T07:50:31.228Z,6.30
2022-09-28T07:52:58.883Z,4.88
2022-09-28T07:55:26.372Z,9.98
2022-09-28T07:58:01.612Z,3.25
2022-09-28T08:00:34.148Z,4.85
2022-09-28T08:03:04.439Z,3.67
2022-09-28T08:05:32.185Z,4.88
2022-09-28T08:07:59.887Z,5.72
2022-09-28T08:10:27.206Z,5.07
2022-09-28T08:12:58.120Z,4.30
2022-09-28T08:15:27.985Z,2.42
2022-09-28T08:17:57.975Z,6.78
2022-09-28T08:20:50.741Z,5.82
2022-09-28T08:23:20.284Z,4.03
2022-09-28T08:25:51.578Z,3.33
2022-09-28T08:28:18.745Z,2.78
2022-09-28T08:30:46.243Z,4.53
2022-09-28T08:33:14.195Z,5.82
2022-09-28T08:35:41.864Z,5.00
2022-09-28T08:38:09.210Z,5.13
2022-09-28T08:40:42.666Z,5.22
2022-09-28T08:43:19.976Z,2.47
2022-09-28T08:45:47.314Z,2.75
2022-09-28T08:48:37.516Z,3.38
2022-09-28T08:51:08.239Z,2.78
2022-09-28T08:53:49.962Z,1.77
2022-09-28T08:56:43.123Z,1.85
2022-09-28T08:59:13.735Z,1.95
2022-09-28T09:01:48.753Z,1.42
2022-09-28T09:04:16.062Z,2.55
2022-09-28T09:06:51.977Z,1.50
2022-09-28T09:09:31.055Z,1.63
2022-09-28T09:12:00.874Z,1.63
2022-09-28T09:14:38.926Z,2.38
2022-09-28T09:17:12.049Z,1.92
2022-09-28T09:19:49.474Z,1.00
2022-09-28T09:22:17.915Z,2.45
2022-09-28T09:29:52.345Z,1.27
2022-09-28T09:32:29.057Z,1.33
2022-09-28T09:34:59.339Z,1.42
2022-09-28T09:37:34.528Z,1.38
2022-09-28T09:40:20.399Z,3.20
2022-09-28T09:42:47.973Z,1.00
2022-09-28T09:45:27.125Z,2.13
2022-09-28T09:47:56.917Z,1.45
2022-09-28T09:50:30.542Z,0.57
2022-09-28T09:53:17.983Z,1.75
2022-09-28T09:55:50.613Z,1.85
2022-09-28T09:58:32.384Z,1.35
2022-09-28T10:01:02.835Z,1.75
2022-09-28T10:03:31.430Z,0.90
2022-09-28T10:06:03.943Z,0.73
2022-09-28T10:08:34.734Z,1.63
2022-09-28T10:11:14.565Z,1.55
2022-09-28T10:13:42.807Z,1.33
2022-09-28T10:16:09.968Z,1.35
2022-09-28T10:18:37.110Z,2.60
2022-09-28T10:21:04.449Z,2.50
2022-09-28T10:23:34.001Z,2.22
2022-09-28T10:26:04.117Z,1.00
2022-09-28T10:28:36.240Z,1.08
2022-09-28T10:31:23.263Z,1.58
2022-09-28T10:33:53.646Z,1.55
2022-09-28T10:36:20.788Z,1.27
2022-09-28T10:38:48.698Z,3.05
2022-09-28T10:41:17.151Z,1.35
2022-09-28T10:46:22.224Z,3.03
2022-09-28T10:48:49.351Z,0.80
2022-09-28T10:51:17.368Z,0.28
2022-09-28T10:53:58.977Z,1.13
2022-09-28T10:56:28.257Z,1.25
2022-09-28T10:58:57.998Z,3.00
2022-09-28T11:03:57.042Z,0.70
2022-09-28T11:06:25.817Z,1.15
2022-09-28T11:08:54.149Z,1.02
2022-09-28T11:11:21.444Z,0.25
2022-09-28T11:13:50.076Z,1.50
2022-09-28T11:16:28.746Z,0.77
2022-09-28T11:18:57.153Z,1.70
2022-09-28T11:21:26.370Z,1.55
2022-09-28T11:23:57.893Z,1.23
2022-09-28T11:26:25.164Z,1.33
2022-09-28T11:28:53.235Z,0.70
2022-09-28T11:31:28.325Z,0.93
2022-09-28T11:34:03.419Z,0.57
2022-09-28T11:36:40.111Z,1.77
2022-09-28T11:39:12.741Z,0.55
2022-09-28T11:41:39.872Z,0.30
2022-09-28T11:44:16.243Z,0.47
2022-09-28T11:47:02.264Z,1.65
2022-09-28T11:49:35.390Z,0.77
2022-09-28T11:52:09.382Z,1.13
2022-09-28T11:54:48.740Z,3.33
2022-09-28T11:57:18.930Z,3.65
2022-09-28T11:59:56.292Z,1.63
2022-09-28T12:02:36.129Z,0.20
2022-09-28T12:05:15.962Z,1.88
2022-09-28T12:07:49.717Z,1.05
2022-09-28T12:10:19.977Z,2.45
2022-09-28T12:13:09.669Z,1.80
2022-09-28T12:19:02.429Z,1.80
2022-09-28T12:21:32.360Z,4.25
2022-09-28T12:24:15.345Z,3.92
2022-09-28T12:26:48.516Z,2.72
2022-09-28T12:29:18.844Z,3.03
2022-09-28T12:31:54.689Z,2.08
2022-09-28T12:34:22.724Z,1.65
2022-09-28T12:36:55.910Z,2.78
2022-09-28T12:39:56.416Z,2.75
2022-09-28T12:42:37.134Z,2.03
2022-09-28T12:45:27.173Z,3.78
2022-09-28T12:47:54.212Z,2.95
2022-09-28T12:50:38.085Z,1.95
2022-09-28T12:53:20.122Z,2.92
2022-09-28T12:55:57.087Z,1.75
2022-09-28T12:58:36.546Z,1.75
2022-09-28T13:01:09.505Z,2.83
2022-09-28T13:03:54.951Z,2.05
2022-09-28T13:06:38.058Z,2.38
2022-09-28T13:09:08.078Z,3.10
2022-09-28T13:11:43.299Z,2.05
2022-09-28T13:14:29.267Z,1.67
2022-09-28T13:17:14.253Z,5.90
2022-09-28T13:20:04.364Z,3.03
2022-09-28T13:22:50.142Z,3.83
2022-09-28T13:25:18.664Z,3.25
2022-09-28T13:28:06.050Z,3.63
2022-09-28T13:30:40.021Z,6.10
2022-09-28T13:33:08.352Z,8.25
2022-09-28T13:35:35.495Z,5.70
2022-09-28T13:38:28.612Z,6.20
2022-09-28T13:41:16.076Z,4.97
2022-09-28T13:44:07.066Z,8.05
2022-09-28T13:46:49.313Z,3.22
2022-09-28T13:49:19.263Z,3.42
2022-09-28T13:51:49.291Z,3.42
2022-09-28T13:57:47.099Z,4.38
2022-09-28T14:00:14.323Z,4.65
2022-09-28T14:02:49.376Z,4.38
2022-09-28T14:05:37.581Z,4.25
2022-09-28T14:08:21.036Z,5.35
2022-09-28T14:10:52.689Z,5.53
2022-09-28T14:13:38.615Z,5.13
2022-09-28T14:16:35.006Z,3.88
2022-09-28T14:19:24.431Z,4.88
2022-09-28T14:22:00.419Z,6.07
2022-09-28T14:24:27.649Z,4.07
2022-09-28T14:27:13.170Z,1.70
2022-09-28T14:29:41.324Z,2.60
2022-09-28T14:32:08.421Z,1.35
2022-09-28T14:34:43.466Z,2.50
2022-09-28T14:37:40.040Z,1.92
2022-09-28T14:40:54.988Z,1.30
2022-09-28T14:43:27.391Z,1.80
2022-09-28T14:46:17.254Z,0.77
2022-09-28T14:48:48.019Z,1.23
2022-09-28T14:51:27.070Z,1.13
2022-09-28T14:53:55.334Z,0.40
2022-09-28T14:56:22.641Z,1.05
2022-09-28T14:58:58.908Z,2.78
2022-09-28T15:01:26.766Z,1.50
2022-09-28T15:03:59.862Z,1.85
2022-09-28T15:06:28.947Z,1.95
2022-09-28T15:08:56.364Z,2.33
2022-09-28T15:11:25.213Z,2.10
2022-09-28T15:14:05.031Z,2.80
2022-09-28T15:16:32.368Z,3.83
2022-09-28T15:19:18.714Z,1.33
2022-09-28T15:21:47.738Z,1.90
2022-09-28T15:24:43.897Z,1.95
2022-09-28T15:27:19.059Z,5.80
2022-09-28T15:30:02.123Z,1.67
2022-09-28T15:32:32.126Z,3.45
2022-09-28T15:35:10.287Z,1.58
2022-09-28T15:37:40.716Z,4.13
2022-09-28T15:40:14.515Z,0.68
2022-09-28T15:42:41.808Z,23.15
2022-09-28T15:45:11.708Z,2.17
2022-09-28T15:47:40.108Z,8.25
2022-09-28T15:50:28.212Z,8.30
2022-09-28T15:52:57.496Z,2.45
2022-09-28T15:55:27.104Z,3.50
2022-09-28T15:58:17.309Z,4.82
2022-09-28T16:00:48.437Z,1.70
2022-09-28T16:03:18.345Z,6.60
2022-09-28T16:05:46.624Z,8.40
2022-09-28T16:08:24.553Z,3.22
2022-09-28T16:10:54.120Z,3.00
2022-09-28T16:13:23.190Z,1.50
2022-09-28T16:15:57.940Z,1.90
2022-09-28T16:18:25.690Z,2.67
2022-09-28T16:20:54.041Z,1.33
2022-09-28T16:23:24.083Z,1.98
2022-09-28T16:25:53.459Z,2.55
2022-09-28T16:28:35.644Z,7.30
2022-09-28T16:31:04.395Z,4.57
2022-09-28T16:33:38.829Z,2.40
2022-09-28T16:36:11.348Z,2.92
2022-09-28T16:38:38.842Z,4.65
2022-09-28T16:41:06.544Z,6.53
2022-09-28T16:43:36.565Z,4.10
2022-09-28T16:46:06.894Z,5.32
2022-09-28T16:48:36.492Z,5.93
2022-09-28T16:51:03.577Z,5.68
2022-09-28T16:53:49.841Z,15.43
2022-09-28T16:56:17.037Z,6.47
2022-09-28T16:58:48.017Z,6.72
2022-09-28T17:01:15.233Z,7.20
2022-09-28T17:03:46.724Z,4.28
2022-09-28T17:06:14.571Z,6.65
2022-09-28T17:08:43.016Z,5.10
2022-09-28T17:11:17.024Z,7.05
2022-09-28T17:13:50.561Z,11.20
2022-09-28T17:16:18.810Z,10.38
2022-09-28T17:18:46.463Z,10.40
2022-09-28T17:21:15.860Z,23.42
2022-09-28T17:23:43.649Z,41.70
2022-09-28T17:26:19.562Z,10.45
2022-09-28T17:28:46.721Z,43.55
2022-09-28T17:31:16.110Z,15.32
2022-09-28T17:33:43.408Z,38.78
2022-09-28T17:36:13.914Z,87.28
2022-09-28T17:38:42.517Z,88.10
2022-09-28T17:41:12.063Z,87.13
2022-09-28T17:43:41.343Z,76.35
2022-09-28T17:46:16.766Z,30.48
2022-09-28T17:48:46.752Z,45.92
2022-09-28T17:51:14.722Z,40.28
2022-09-28T17:53:41.877Z,26.13
2022-09-28T17:56:09.854Z,48.47
2022-09-28T17:58:38.464Z,32.95
2022-09-28T18:01:05.777Z,14.20
2022-09-28T18:03:32.992Z,18.83
2022-09-28T18:06:04.668Z,21.55
2022-09-28T18:08:31.807Z,30.70
2022-09-28T18:10:59.233Z,28.73
2022-09-28T18:13:26.463Z,24.27
2022-09-28T18:15:53.987Z,31.27
2022-09-28T18:18:21.744Z,30.05
2022-09-28T18:20:49.016Z,32.13
2022-09-28T18:23:16.085Z,23.00
2022-09-28T18:25:44.074Z,19.60
2022-09-28T18:28:11.923Z,18.55
2022-09-28T18:30:40.286Z,26.60
2022-09-28T18:33:07.631Z,28.77
2022-09-28T18:35:34.766Z,11.50
2022-09-28T18:38:01.914Z,11.13
2022-09-28T18:40:29.071Z,16.00
2022-09-28T18:42:56.189Z,10.95
2022-09-28T18:45:23.341Z,8.82
2022-09-28T18:47:50.539Z,7.68
2022-09-28T18:50:17.909Z,8.45
2022-09-28T18:52:47.200Z,9.23
2022-09-28T18:55:14.402Z,9.60
2022-09-28T18:57:42.334Z,17.13
2022-09-28T19:00:10.859Z,15.60
2022-09-28T19:02:38.167Z,27.63
2022-09-28T19:05:05.718Z,12.90
2022-09-28T19:07:33.291Z,20.13
2022-09-28T19:10:00.438Z,9.75
2022-09-28T19:12:27.706Z,12.25
2022-09-28T19:14:54.845Z,9.23
2022-09-28T19:17:22.037Z,12.88
2022-09-28T19:19:49.121Z,14.48
2022-09-28T19:22:16.254Z,9.70
2022-09-28T19:24:43.587Z,8.73
2022-09-28T19:27:10.761Z,9.52
2022-09-28T19:29:37.829Z,9.07
2022-09-28T19:32:05.032Z,10.20
2022-09-28T19:34:32.156Z,10.20
2022-09-28T19:37:03.742Z,9.40
2022-09-28T19:39:31.134Z,9.27
2022-09-28T19:41:59.812Z,8.18
2022-09-28T19:44:28.086Z,7.53
2022-09-28T19:46:59.347Z,11.18
2022-09-28T19:49:36.997Z,7.88
2022-09-28T19:52:13.285Z,7.60
2022-09-28T19:54:43.778Z,8.23
2022-09-28T19:57:11.656Z,7.35
2022-09-28T19:59:39.268Z,5.80
2022-09-28T20:02:07.536Z,6.80
2022-09-28T20:04:34.809Z,5.13
2022-09-28T20:07:02.012Z,8.27
2022-09-28T20:09:29.369Z,6.90
2022-09-28T20:11:56.955Z,5.18
2022-09-28T20:14:25.962Z,7.90
2022-09-28T20:16:57.741Z,7.82
2022-09-28T20:19:25.249Z,6.38
2022-09-28T20:21:52.475Z,6.95
2022-09-28T20:24:19.560Z,4.38
2022-09-28T20:26:46.711Z,4.57
2022-09-28T20:29:14.094Z,5.35
2022-09-28T20:31:42.574Z,6.38
2022-09-28T20:34:10.170Z,8.73
2022-09-28T20:36:37.700Z,11.88
2022-09-28T20:39:05.017Z,11.38
2022-09-28T20:41:36.924Z,13.43
2022-09-28T20:44:06.134Z,18.75
2022-09-28T20:46:34.583Z,17.80
2022-09-28T20:49:01.879Z,18.77
2022-09-28T20:51:29.021Z,16.92
2022-09-28T20:53:57.056Z,17.98
2022-09-28T20:56:28.191Z,20.48
2022-09-28T20:58:56.854Z,20.42
2022-09-28T21:01:28.613Z,19.13
2022-09-28T21:03:56.896Z,15.63
2022-09-28T21:06:28.672Z,8.95
2022-09-28T21:08:55.937Z,7.75
2022-09-28T21:11:24.033Z,7.03
2022-09-28T21:13:58.883Z,12.80
2022-09-28T21:16:27.021Z,12.63
2022-09-28T21:18:54.319Z,11.05
2022-09-28T21:21:22.326Z,12.40
2022-09-28T21:23:52.558Z,10.45
2022-09-28T21:26:27.106Z,8.95
2022-09-28T21:28:55.297Z,6.93
2022-09-28T21:31:28.264Z,8.55
2022-09-28T21:33:56.328Z,12.35
2022-09-28T21:36:23.466Z,15.10
2022-09-28T21:38:50.584Z,10.50
2022-09-28T21:41:18.068Z,10.68
2022-09-28T21:43:46.188Z,5.43
2022-09-28T21:46:13.529Z,8.07
2022-09-28T21:48:41.708Z,5.15
2022-09-28T21:51:15.465Z,10.10
2022-09-28T21:53:42.923Z,9.32
2022-09-28T21:56:11.263Z,7.88
2022-09-28T21:58:38.359Z,9.82
2022-09-28T22:01:07.231Z,13.77
2022-09-28T22:03:35.325Z,10.43
2022-09-28T22:06:02.872Z,10.93
2022-09-28T22:08:30.100Z,11.00
2022-09-28T22:11:03.103Z,9.77
2022-09-28T22:13:31.464Z,11.35
2022-09-28T22:15:58.895Z,8.25
2022-09-28T22:18:26.688Z,12.00
2022-09-28T22:21:11.877Z,10.18
2022-09-28T22:23:39.376Z,7.63
2022-09-28T22:26:08.012Z,7.13
2022-09-28T22:28:35.137Z,4.85
2022-09-28T22:31:02.614Z,7.07
2022-09-28T22:33:29.775Z,6.80
2022-09-28T22:35:56.904Z,6.13
2022-09-28T22:38:25.029Z,3.63
2022-09-28T22:40:54.518Z,4.85
2022-09-28T22:43:23.493Z,7.88
2022-09-28T22:48:18.413Z,8.20
2022-09-28T22:50:52.137Z,5.50
2022-09-28T22:53:19.780Z,5.85
2022-09-28T22:55:47.144Z,5.88
2022-09-28T22:58:14.393Z,7.13
2022-09-28T23:00:41.638Z,7.95
2022-09-28T23:03:08.791Z,9.98
2022-09-28T23:05:36.128Z,5.07
2022-09-28T23:08:03.561Z,7.18
2022-09-28T23:10:30.755Z,5.80
2022-09-28T23:12:58.369Z,7.82
2022-09-28T23:15:26.129Z,3.35
2022-09-28T23:17:53.489Z,6.72
2022-09-28T23:20:23.726Z,6.65
2022-09-28T23:22:51.281Z,8.88
2022-09-28T23:25:19.841Z,10.13
2022-09-28T23:27:47.541Z,13.30
2022-09-28T23:30:15.475Z,15.35
2022-09-28T23:32:42.640Z,12.52
2022-09-28T23:35:09.928Z,17.27
2022-09-28T23:37:37.793Z,15.38
2022-09-28T23:40:05.722Z,12.07
2022-09-28T23:42:33.330Z,11.05
2022-09-28T23:45:00.380Z,8.85
2022-09-28T23:47:27.605Z,9.85
2022-09-28T23:49:54.911Z,10.38
2022-09-28T23:52:22.035Z,13.60
2022-09-28T23:54:49.097Z,9.30
2022-09-28T23:57:16.176Z,10.13
2022-09-28T23:59:43.446Z,12.30
